Meadow Lands, Pennsylvania
Current Conditions -  °F | °C
As of 5:55 PM on Tuesday 21 Oct 2014 (Local Time) from KAFJ Reporting Station
Overcast Overcast  
Wind Chill: 48°   Ceiling: 2100
Heat Index: 48°   Visibility: 10mi
Dew Point: 45°   Wind: 3mph
Humidity: 87%   Direction: 310°NW
Pressure: 29.97"   Gusts: NA
Location:  40.22°N, 80.22°W
Report Text: KAFJ 212155Z AUTO 31003KT 10SM FEW012 BKN021 OVC030 09/07 A2997 RMK AO1 P0001
Loading
Personal Weather Stations






























Interactive Weather Map
Tropical Storm Tracking
New forecast layout! Learn more

10-Day Weather Forecast

Advertisements
Track Severe Weather on mobile